Time;durP1;ratioP1;P1;durP2;ratioP2;P2;SDS_P1;SDS_P2;PMS_P1;PMS_P2;Temp;Humidity;BMP_temperature;BMP_pressure;BME280_temperature;BME280_humidity;BME280_pressure;Samples;Min_cycle;Max_cycle;Signal;HPM_P1;HPM_P2
2022/10/08 00:01:24;;;;;;;19.30;10.13;;;;;;;9.74;84.22;99927.81;1689977;84;21005;-77
2022/10/08 00:03:53;;;;;;;26.85;9.38;;;;;;;9.80;84.51;99922.16;1665788;86;21013;-78
2022/10/08 00:06:28;;;;;;;24.10;10.90;;;;;;;9.81;85.05;99919.96;1664988;86;20955;-80
2022/10/08 00:09:04;;;;;;;22.73;11.40;;;;;;;9.81;85.04;99923.86;1673386;85;21525;-80
2022/10/08 00:11:36;;;;;;;22.85;10.38;;;;;;;9.80;84.91;99915.66;1642422;86;21011;-79
2022/10/08 00:14:06;;;;;;;28.52;10.72;;;;;;;9.83;84.96;99915.61;1677547;85;20985;-78
2022/10/08 00:16:38;;;;;;;23.83;10.58;;;;;;;9.86;84.29;99905.22;1681280;84;21015;-76
2022/10/08 00:19:11;;;;;;;26.52;10.85;;;;;;;9.87;84.68;99901.31;1681878;85;21018;-78
2022/10/08 00:21:42;;;;;;;24.95;11.48;;;;;;;9.93;84.81;99904.30;1680646;85;21025;-79
2022/10/08 00:24:14;;;;;;;27.90;11.15;;;;;;;9.98;84.52;99906.39;1638992;86;21036;-77
2022/10/08 00:26:43;;;;;;;23.73;10.03;;;;;;;9.95;83.82;99905.99;1650915;86;21070;-77
2022/10/08 00:29:15;;;;;;;20.43;10.15;;;;;;;9.91;83.51;99909.50;1682364;85;21001;-77
2022/10/08 00:31:46;;;;;;;21.35;9.60;;;;;;;9.89;83.15;99906.50;1668031;86;21085;-76
2022/10/08 00:34:19;;;;;;;22.75;9.03;;;;;;;9.84;82.99;99903.07;1673294;84;21003;-78
2022/10/08 00:36:53;;;;;;;15.77;8.37;;;;;;;9.81;83.11;99895.30;1683170;85;21525;-78
2022/10/08 00:39:23;;;;;;;16.32;8.83;;;;;;;9.80;83.01;99895.73;1679211;85;21466;-78
2022/10/08 00:41:54;;;;;;;19.82;8.55;;;;;;;9.70;82.38;99894.95;1684055;85;21034;-78
2022/10/08 00:44:53;;;;;;;17.25;9.10;;;;;;;9.64;82.57;99897.61;1659462;86;21509;-78
2022/10/08 00:47:38;;;;;;;15.35;8.53;;;;;;;9.60;83.07;99900.25;1665250;86;21005;-78
2022/10/08 00:50:20;;;;;;;18.25;8.25;;;;;;;9.59;83.17;99892.02;1660603;86;20994;-77
2022/10/08 00:52:58;;;;;;;18.05;8.20;;;;;;;9.53;82.37;99887.33;1664481;86;20981;-77
2022/10/08 00:55:27;;;;;;;14.43;7.35;;;;;;;9.51;84.00;99886.48;1646180;86;21064;-78
2022/10/08 00:58:00;;;;;;;17.52;9.55;;;;;;;9.51;83.43;99877.81;1642411;87;21507;-78
2022/10/08 01:00:29;;;;;;;20.65;9.40;;;;;;;9.49;83.89;99875.25;1639178;87;20987;-78
2022/10/08 01:02:58;;;;;;;16.57;9.15;;;;;;;9.48;83.65;99876.55;1661782;86;21518;-81
2022/10/08 01:05:53;;;;;;;17.82;8.55;;;;;;;9.45;83.74;99880.04;1681206;85;21509;-77
2022/10/08 01:09:02;;;;;;;13.98;8.78;;;;;;;9.43;83.60;99878.31;1667354;85;20990;-79
2022/10/08 01:11:47;;;;;;;18.45;8.78;;;;;;;9.39;83.54;99879.20;1682201;85;20994;-79
2022/10/08 01:14:44;;;;;;;17.90;9.00;;;;;;;9.39;83.63;99876.20;1679877;85;21054;-78
2022/10/08 01:17:38;;;;;;;15.63;8.23;;;;;;;9.36;83.32;99877.06;1669020;85;20941;-77
2022/10/08 01:20:31;;;;;;;18.45;8.83;;;;;;;9.36;83.19;99876.21;1668022;85;21004;-78
2022/10/08 01:23:25;;;;;;;17.50;9.18;;;;;;;9.33;82.86;99872.33;1667802;85;21003;-78
2022/10/08 01:26:07;;;;;;;16.82;8.63;;;;;;;9.28;82.64;99867.62;1664816;86;21601;-78
2022/10/08 01:28:58;;;;;;;21.25;8.25;;;;;;;9.27;83.23;99874.97;1651935;86;21058;-78
2022/10/08 01:31:45;;;;;;;17.15;8.30;;;;;;;9.24;82.97;99868.08;1660691;85;21026;-78
2022/10/08 01:34:36;;;;;;;18.27;8.35;;;;;;;9.24;83.00;99864.19;1663090;86;21010;-78
2022/10/08 01:37:09;;;;;;;18.92;10.28;;;;;;;9.25;82.78;99863.33;1658394;86;21010;-77
2022/10/08 01:39:40;;;;;;;28.23;11.38;;;;;;;9.26;82.40;99866.78;1669732;85;20975;-78
2022/10/08 01:42:10;;;;;;;24.23;9.83;;;;;;;9.23;82.70;99868.97;1663956;86;21010;-77
2022/10/08 01:44:47;;;;;;;21.93;9.98;;;;;;;9.19;82.36;99869.86;1669441;86;21542;-77
2022/10/08 01:47:26;;;;;;;33.80;11.15;;;;;;;9.16;82.10;99871.17;1647564;86;21010;-77
2022/10/08 01:50:20;;;;;;;24.30;10.60;;;;;;;9.16;82.09;99874.61;1668714;86;21601;-78
2022/10/08 01:52:52;;;;;;;17.82;9.28;;;;;;;9.14;81.93;99871.17;1661952;86;21024;-77
2022/10/08 01:55:25;;;;;;;23.62;9.40;;;;;;;9.08;81.55;99875.55;1665525;84;21037;-76
2022/10/08 01:57:56;;;;;;;22.50;8.80;;;;;;;9.05;81.81;99872.96;1676931;85;21041;-78
2022/10/08 02:00:25;;;;;;;17.17;8.25;;;;;;;9.04;81.87;99865.63;1684008;85;21029;-76
2022/10/08 02:02:54;;;;;;;13.72;7.47;;;;;;;9.03;81.73;99866.92;1676690;85;21026;-78
2022/10/08 02:05:26;;;;;;;14.35;7.62;;;;;;;8.99;81.71;99871.70;1684189;85;21017;-79
2022/10/08 02:07:54;;;;;;;14.20;7.60;;;;;;;8.96;81.77;99865.67;1678647;85;21042;-79
2022/10/08 02:10:24;;;;;;;12.05;7.12;;;;;;;8.95;81.67;99868.27;1678365;84;21058;-78
2022/10/08 02:12:52;;;;;;;14.47;6.95;;;;;;;8.78;81.47;99859.30;1660302;86;21837;-76
2022/10/08 02:15:25;;;;;;;11.30;7.08;;;;;;;8.75;82.34;99865.38;1662408;86;20998;-78
2022/10/08 02:18:15;;;;;;;16.42;6.72;;;;;;;8.74;82.50;99866.67;1661694;86;21002;-78
2022/10/08 02:21:03;;;;;;;12.70;7.08;;;;;;;8.75;82.19;99869.27;1665697;86;21054;-78
2022/10/08 02:23:38;;;;;;;11.83;7.12;;;;;;;8.74;82.10;99867.52;1659268;85;21025;-78
2022/10/08 02:26:17;;;;;;;10.05;6.30;;;;;;;8.72;82.17;99869.27;1660030;86;21065;-77
2022/10/08 02:29:09;;;;;;;12.07;7.25;;;;;;;8.65;82.05;99871.45;1659517;85;21030;-78
2022/10/08 02:31:53;;;;;;;9.95;6.45;;;;;;;8.65;82.65;99872.74;1661547;86;21033;-77
2022/10/08 02:34:37;;;;;;;11.63;6.83;;;;;;;8.63;82.00;99869.74;1662847;86;21013;-77
2022/10/08 02:37:26;;;;;;;12.88;6.53;;;;;;;8.58;82.76;99868.48;1680106;85;21010;-79
2022/10/08 02:40:04;;;;;;;11.48;6.90;;;;;;;8.58;83.01;99873.66;1656483;86;21006;-77
2022/10/08 02:42:34;;;;;;;11.63;6.50;;;;;;;8.60;83.13;99877.11;1642452;86;21018;-79
2022/10/08 02:45:21;;;;;;;17.98;7.05;;;;;;;8.62;83.69;99876.66;1659285;86;20989;-78
2022/10/08 02:47:53;;;;;;;22.40;9.50;;;;;;;8.65;84.02;99871.89;1667151;86;20986;-78
2022/10/08 02:50:25;;;;;;;24.05;10.93;;;;;;;8.68;83.69;99874.48;1660709;85;21497;-78
2022/10/08 02:52:54;;;;;;;34.92;11.68;;;;;;;8.65;84.79;99875.34;1667257;86;21061;-78
2022/10/08 02:55:42;;;;;;;33.48;13.25;;;;;;;8.63;84.97;99869.74;1650344;86;21080;-78
2022/10/08 02:58:12;;;;;;;30.43;12.37;;;;;;;8.65;86.10;99868.86;1655592;86;21075;-79
2022/10/08 03:01:12;;;;;;;30.23;13.38;;;;;;;8.67;85.09;99871.00;1618765;87;20944;-79
2022/10/08 03:03:52;;;;;;;39.58;14.58;;;;;;;8.63;85.18;99873.63;1613496;87;21036;-79
2022/10/08 03:06:20;;;;;;;34.48;14.68;;;;;;;8.66;87.12;99873.63;1633159;86;21053;-79
2022/10/08 03:08:50;;;;;;;34.18;12.40;;;;;;;8.66;88.00;99869.30;1648794;87;21036;-77
2022/10/08 03:11:18;;;;;;;44.27;17.45;;;;;;;8.68;86.55;99875.78;1626122;87;21011;-79
2022/10/08 03:13:49;;;;;;;34.10;13.18;;;;;;;8.69;86.55;99874.89;1646195;87;21014;-79
2022/10/08 03:16:21;;;;;;;26.60;11.85;;;;;;;8.68;87.71;99874.48;1638483;87;20987;-77
2022/10/08 03:18:51;;;;;;;32.23;12.13;;;;;;;8.69;86.85;99881.38;1639778;86;21042;-79
2022/10/08 03:21:19;;;;;;;23.87;11.53;;;;;;;8.71;86.53;99875.75;1638076;87;21026;-77
2022/10/08 03:23:47;;;;;;;22.67;10.25;;;;;;;8.70;86.68;99883.97;1642879;87;20963;-79
2022/10/08 03:26:17;;;;;;;23.90;10.25;;;;;;;8.71;87.38;99875.75;1640525;87;21058;-77
2022/10/08 03:28:45;;;;;;;17.52;8.30;;;;;;;8.71;87.10;99875.75;1642654;87;21479;-78
2022/10/08 03:31:13;;;;;;;15.70;8.23;;;;;;;8.75;89.73;99879.63;1641891;87;21011;-79
2022/10/08 03:33:41;;;;;;;20.77;9.45;;;;;;;8.78;88.88;99870.97;1636364;87;21006;-78
2022/10/08 03:36:08;;;;;;;21.15;10.45;;;;;;;8.79;88.63;99867.48;1642024;86;21030;-78
2022/10/08 03:38:36;;;;;;;18.15;8.58;;;;;;;8.76;88.31;99872.27;1641714;87;20971;-77
2022/10/08 03:41:04;;;;;;;18.50;9.00;;;;;;;8.76;88.44;99869.67;1633121;87;21008;-77
2022/10/08 03:43:32;;;;;;;32.55;11.95;;;;;;;8.74;87.96;99875.75;1646950;87;20955;-83
2022/10/08 03:46:01;;;;;;;23.05;12.53;;;;;;;8.77;88.32;99869.23;1646334;87;21034;-80
2022/10/08 03:48:30;;;;;;;24.10;12.73;;;;;;;8.81;88.31;99868.78;1642691;87;20987;-82
2022/10/08 03:51:06;;;;;;;23.10;11.57;;;;;;;8.85;89.73;99870.05;1663665;86;21014;-84
2022/10/08 03:53:36;;;;;;;15.75;8.18;;;;;;;8.90;90.06;99863.11;1618175;87;21565;-83
2022/10/08 03:56:07;;;;;;;17.17;9.03;;;;;;;8.98;88.32;99862.22;1669932;84;21129;-79
2022/10/08 03:58:36;;;;;;;18.48;8.65;;;;;;;8.97;88.98;99862.63;1665212;86;21006;-77
2022/10/08 04:01:11;;;;;;;18.65;8.98;;;;;;;8.99;88.54;99860.03;1674281;85;21014;-82
2022/10/08 04:03:39;;;;;;;21.85;8.78;;;;;;;9.00;89.22;99865.22;1663754;86;20978;-81
2022/10/08 04:06:07;;;;;;;16.85;8.60;;;;;;;8.95;88.21;99856.59;1669965;85;21007;-77
2022/10/08 04:08:36;;;;;;;15.58;7.60;;;;;;;8.86;89.22;99857.52;1674152;85;20991;-77
2022/10/08 04:11:07;;;;;;;21.07;9.55;;;;;;;8.90;89.51;99854.48;1631981;87;20991;-79
2022/10/08 04:13:36;;;;;;;22.15;8.85;;;;;;;8.92;89.28;99858.78;1640919;86;21514;-78
2022/10/08 04:16:11;;;;;;;19.55;8.30;;;;;;;8.91;88.70;99851.00;1665386;86;21074;-78
2022/10/08 04:18:39;;;;;;;15.58;8.28;;;;;;;8.95;89.00;99852.29;1645740;87;21015;-77
2022/10/08 04:21:11;;;;;;;12.95;7.25;;;;;;;8.91;87.33;99850.59;1646774;87;21019;-78
2022/10/08 04:23:41;;;;;;;15.43;8.93;;;;;;;8.88;89.31;99852.34;1648833;86;21036;-77
2022/10/08 04:26:11;;;;;;;16.07;7.78;;;;;;;8.89;88.84;99848.44;1648013;87;21054;-75
2022/10/08 04:28:41;;;;;;;17.67;8.08;;;;;;;8.91;89.23;99848.00;1684479;85;20968;-77
2022/10/08 04:31:16;;;;;;;15.08;7.45;;;;;;;8.90;88.14;99846.26;1663438;84;21430;-78
2022/10/08 04:33:45;;;;;;;15.78;7.45;;;;;;;8.86;88.01;99852.34;1621712;88;21026;-77
2022/10/08 04:36:20;;;;;;;15.00;7.30;;;;;;;8.89;88.67;99852.74;1652727;86;21022;-79
2022/10/08 04:38:48;;;;;;;13.70;7.78;;;;;;;8.82;88.34;99849.34;1683723;85;20974;-77
2022/10/08 04:41:21;;;;;;;15.63;8.10;;;;;;;8.75;87.04;99843.75;1659787;85;21763;-78
2022/10/08 04:43:49;;;;;;;14.05;7.92;;;;;;;8.68;88.72;99836.89;1598221;88;21594;-79
2022/10/08 04:46:20;;;;;;;14.75;7.75;;;;;;;8.68;88.72;99836.89;1652808;86;21011;-78
2022/10/08 04:48:53;;;;;;;13.25;7.58;;;;;;;8.70;88.24;99845.08;1676242;85;20946;-77
2022/10/08 04:51:24;;;;;;;13.48;7.60;;;;;;;8.74;89.15;99848.08;1672687;84;21054;-77
2022/10/08 04:53:52;;;;;;;14.45;7.97;;;;;;;8.74;87.68;99853.27;1620154;87;21010;-77
2022/10/08 04:56:28;;;;;;;15.15;7.10;;;;;;;8.72;89.20;99846.38;1653699;85;21049;-79
2022/10/08 04:58:57;;;;;;;15.78;6.90;;;;;;;8.75;89.73;99849.82;1679105;85;20949;-78
2022/10/08 05:01:26;;;;;;;12.23;6.90;;;;;;;8.80;89.33;99845.04;1677621;84;21024;-78
2022/10/08 05:03:56;;;;;;;15.13;7.55;;;;;;;8.84;89.51;99851.48;1665312;86;21617;-77
2022/10/08 05:06:27;;;;;;;14.47;7.20;;;;;;;8.84;88.87;99850.19;1665715;85;21085;-79
2022/10/08 05:08:57;;;;;;;13.85;7.95;;;;;;;8.87;88.10;99848.89;1673494;86;21005;-80
2022/10/08 05:11:26;;;;;;;13.75;6.92;;;;;;;8.79;88.19;99840.70;1665721;86;21583;-77
2022/10/08 05:13:56;;;;;;;12.50;6.75;;;;;;;8.74;88.00;99848.52;1666896;85;21545;-77
2022/10/08 05:16:25;;;;;;;15.93;7.60;;;;;;;8.74;89.63;99848.52;1681509;85;20997;-77
2022/10/08 05:18:53;;;;;;;14.55;7.72;;;;;;;8.81;88.53;99845.45;1665516;86;20978;-77
2022/10/08 05:21:25;;;;;;;14.15;7.97;;;;;;;8.83;89.67;99848.45;1678608;85;20989;-81
2022/10/08 05:23:59;;;;;;;13.58;7.10;;;;;;;8.90;89.38;99852.74;1669300;86;21002;-78
2022/10/08 05:26:31;;;;;;;14.20;8.13;;;;;;;8.92;89.26;99843.22;1670430;86;21498;-78
2022/10/08 05:28:59;;;;;;;15.55;7.33;;;;;;;8.93;88.62;99838.48;1666296;86;21039;-77
2022/10/08 05:31:29;;;;;;;15.05;8.68;;;;;;;8.92;89.52;99848.84;1670903;86;20994;-79
2022/10/08 05:33:58;;;;;;;20.30;8.73;;;;;;;8.99;90.33;99847.92;1644233;87;21115;-77
2022/10/08 05:36:29;;;;;;;12.70;6.87;;;;;;;9.06;89.74;99848.31;1650908;87;20990;-78
2022/10/08 05:39:00;;;;;;;18.30;8.43;;;;;;;9.12;88.91;99853.91;1643836;86;20994;-77
2022/10/08 05:41:31;;;;;;;14.03;8.05;;;;;;;9.11;89.19;99858.65;1650296;86;21014;-77
2022/10/08 05:44:02;;;;;;;12.75;6.60;;;;;;;9.18;89.68;99847.81;1643307;87;21038;-77
2022/10/08 05:46:33;;;;;;;12.68;6.67;;;;;;;9.15;88.26;99859.05;1649851;87;21018;-77
2022/10/08 05:49:03;;;;;;;15.70;6.37;;;;;;;9.15;88.73;99860.34;1642768;87;21017;-78
2022/10/08 05:51:31;;;;;;;12.78;6.55;;;;;;;9.16;88.32;99864.23;1649290;87;21058;-79
2022/10/08 05:54:00;;;;;;;7.53;4.92;;;;;;;9.16;88.40;99864.68;1643835;87;20975;-77
2022/10/08 05:56:30;;;;;;;9.40;5.90;;;;;;;9.13;88.18;99863.39;1646477;85;21841;-77
2022/10/08 05:58:58;;;;;;;7.67;5.08;;;;;;;9.16;88.80;99862.09;1645880;86;21003;-77
2022/10/08 06:01:31;;;;;;;10.65;5.83;;;;;;;9.22;88.00;99865.08;1668108;86;21523;-77
2022/10/08 06:04:01;;;;;;;11.22;6.22;;;;;;;9.18;88.18;99870.72;1646667;87;21022;-77
2022/10/08 06:06:29;;;;;;;13.40;5.70;;;;;;;9.17;88.66;99867.69;1648812;87;21015;-77
2022/10/08 06:09:00;;;;;;;13.20;7.53;;;;;;;9.18;88.30;99868.12;1647276;87;21022;-78
2022/10/08 06:11:31;;;;;;;13.58;6.42;;;;;;;9.24;88.26;99870.67;1653589;87;21026;-77
2022/10/08 06:14:00;;;;;;;12.33;6.37;;;;;;;9.27;88.75;99871.08;1677606;85;20965;-78
2022/10/08 06:16:29;;;;;;;12.37;6.50;;;;;;;9.29;88.54;99870.63;1656957;85;21013;-78
2022/10/08 06:18:57;;;;;;;13.72;6.70;;;;;;;9.36;88.44;99871.87;1624420;88;21018;-77
2022/10/08 06:21:26;;;;;;;13.05;6.17;;;;;;;9.40;88.34;99868.82;1656310;86;20983;-77
2022/10/08 06:23:59;;;;;;;16.30;7.10;;;;;;;9.39;87.97;99872.31;1686668;85;21005;-77
2022/10/08 06:26:31;;;;;;;13.78;7.53;;;;;;;9.43;88.36;99871.82;1660187;85;21466;-78
2022/10/08 06:28:59;;;;;;;15.78;8.10;;;;;;;9.49;88.69;99879.55;1672041;86;21003;-79
2022/10/08 06:31:27;;;;;;;21.85;8.35;;;;;;;9.52;88.88;99868.72;1664867;86;21032;-77
2022/10/08 06:33:56;;;;;;;19.48;8.48;;;;;;;9.64;89.02;99870.34;1663753;85;21029;-76
2022/10/08 06:36:26;;;;;;;18.00;8.90;;;;;;;9.76;89.19;99870.67;1670777;86;21530;-75
2022/10/08 06:38:58;;;;;;;18.07;7.67;;;;;;;9.87;88.69;99871.89;1668597;86;21041;-76
2022/10/08 06:41:29;;;;;;;15.63;7.75;;;;;;;9.90;88.09;99871.84;1663228;86;21025;-75
2022/10/08 06:43:57;;;;;;;12.37;7.00;;;;;;;9.89;88.03;99880.53;1667425;86;21489;-75
2022/10/08 06:46:24;;;;;;;14.10;6.78;;;;;;;9.96;88.09;99873.08;1665378;86;21014;-76
2022/10/08 06:48:52;;;;;;;14.00;7.70;;;;;;;9.98;87.59;99872.63;1669638;86;21069;-75
2022/10/08 06:51:20;;;;;;;14.30;7.65;;;;;;;10.01;87.81;99867.41;1665715;86;20967;-77
2022/10/08 06:53:55;;;;;;;15.98;8.43;;;;;;;10.08;88.05;99866.45;1666277;85;21344;-76
2022/10/08 06:56:25;;;;;;;14.73;8.05;;;;;;;10.21;88.08;99864.59;1627870;86;21028;-77
2022/10/08 06:58:53;;;;;;;15.18;7.70;;;;;;;10.30;87.34;99861.05;1642520;86;21085;-77
2022/10/08 07:01:24;;;;;;;13.08;7.85;;;;;;;10.24;87.71;99864.98;1679035;85;21038;-78
2022/10/08 07:03:56;;;;;;;15.60;7.97;;;;;;;10.37;87.92;99865.76;1645777;85;21819;-76
2022/10/08 07:06:24;;;;;;;14.60;7.80;;;;;;;10.50;87.84;99864.29;1629770;88;21501;-75
2022/10/08 07:08:55;;;;;;;14.00;8.23;;;;;;;10.65;87.91;99863.22;1630601;87;21015;-75
2022/10/08 07:11:24;;;;;;;11.53;7.22;;;;;;;10.79;87.18;99867.39;1629335;88;21024;-75
2022/10/08 07:13:55;;;;;;;9.18;6.47;;;;;;;10.85;86.13;99866.84;1632591;88;21022;-77
2022/10/08 07:16:24;;;;;;;18.10;9.13;;;;;;;10.79;86.10;99861.73;1673806;85;21053;-75
2022/10/08 07:18:55;;;;;;;20.62;9.33;;;;;;;10.80;86.16;99868.64;1663247;85;21081;-75
2022/10/08 07:21:23;;;;;;;16.15;8.93;;;;;;;10.75;86.08;99864.81;1630260;87;21003;-75
2022/10/08 07:23:51;;;;;;;19.27;9.58;;;;;;;10.77;86.18;99861.34;1629442;88;21025;-75
2022/10/08 07:26:23;;;;;;;25.65;9.23;;;;;;;10.82;85.92;99859.52;1663932;85;21498;-76
2022/10/08 07:28:55;;;;;;;20.48;10.48;;;;;;;10.82;85.68;99856.92;1670996;85;21026;-78
2022/10/08 07:31:28;;;;;;;17.95;9.28;;;;;;;10.87;85.74;99853.83;1606225;88;21005;-75
2022/10/08 07:34:02;;;;;;;20.85;9.90;;;;;;;10.90;85.61;99859.85;1633257;88;21089;-75
2022/10/08 07:36:29;;;;;;;;;;;;;;;10.97;85.59;99853.26;1643780;85;20982;-75
2022/10/08 07:39:01;;;;;;;22.60;9.00;;;;;;;11.06;85.22;99853.98;1631155;88;20113;-75
2022/10/08 07:41:30;;;;;;;18.42;9.73;;;;;;;11.14;85.23;99843.43;1632070;88;21010;-76
2022/10/08 07:44:00;;;;;;;20.12;9.75;;;;;;;11.17;84.55;99853.81;1672399;85;21021;-76
2022/10/08 07:46:32;;;;;;;20.97;9.80;;;;;;;11.16;84.81;99845.59;1626864;88;21065;-77
2022/10/08 07:49:00;;;;;;;20.60;9.45;;;;;;;11.23;84.81;99845.05;1631330;88;21018;-77
2022/10/08 07:51:30;;;;;;;18.20;10.20;;;;;;;11.31;84.35;99844.03;1651467;85;21021;-78
2022/10/08 07:54:03;;;;;;;19.57;10.08;;;;;;;11.37;84.07;99838.32;1607089;88;21536;-79
2022/10/08 07:56:33;;;;;;;24.20;10.25;;;;;;;11.45;84.39;99833.84;1632054;87;21100;-78
2022/10/08 07:59:02;;;;;;;21.55;10.10;;;;;;;11.45;84.30;99829.94;1666645;86;21098;-76
2022/10/08 08:01:32;;;;;;;20.55;10.35;;;;;;;11.49;84.21;99833.75;1618377;87;21024;-76
2022/10/08 08:04:04;;;;;;;19.48;10.28;;;;;;;11.54;84.30;99831.09;1639250;87;21013;-80
2022/10/08 08:06:40;;;;;;;22.52;10.60;;;;;;;11.60;84.06;99822.29;1631972;86;21025;-77
2022/10/08 08:09:08;;;;;;;22.45;9.88;;;;;;;11.70;84.05;99825.17;1638337;87;21054;-76
2022/10/08 08:11:36;;;;;;;20.90;9.65;;;;;;;11.76;84.07;99815.94;1633919;86;21006;-81
2022/10/08 08:14:04;;;;;;;20.10;10.32;;;;;;;11.80;83.50;99816.30;1661584;85;20987;-76
2022/10/08 08:16:32;;;;;;;20.25;9.25;;;;;;;11.85;83.86;99813.59;1620232;87;21510;-77
2022/10/08 08:19:01;;;;;;;13.98;7.85;;;;;;;11.94;84.06;99806.95;1665642;85;21782;-77
2022/10/08 08:21:36;;;;;;;15.63;8.05;;;;;;;12.06;83.99;99818.89;1667638;85;20983;-75
2022/10/08 08:24:09;;;;;;;13.13;8.38;;;;;;;12.15;84.07;99809.56;1662083;86;21006;-76
2022/10/08 08:26:39;;;;;;;13.67;7.90;;;;;;;12.26;83.82;99809.36;1665033;86;21026;-79
2022/10/08 08:29:11;;;;;;;14.70;9.08;;;;;;;12.38;83.72;99806.95;1664070;86;20995;-78
2022/10/08 08:31:43;;;;;;;13.78;8.35;;;;;;;12.45;83.17;99805.45;1663250;86;20990;-75
2022/10/08 08:34:15;;;;;;;16.45;8.13;;;;;;;12.47;83.12;99798.48;1663539;86;21030;-75
2022/10/08 08:36:47;;;;;;;16.80;8.05;;;;;;;12.53;82.94;99797.47;1663224;86;21028;-77
2022/10/08 08:39:19;;;;;;;15.25;7.37;;;;;;;12.60;82.67;99803.43;1667027;86;20999;-76
2022/10/08 08:42:07;;;;;;;14.38;7.72;;;;;;;12.59;82.62;99798.63;1667252;86;21010;-75
2022/10/08 08:44:48;;;;;;;13.90;7.25;;;;;;;12.63;82.13;99795.52;1664799;86;20987;-78
2022/10/08 08:47:33;;;;;;;12.78;7.58;;;;;;;12.64;82.42;99792.88;1662603;86;21057;-77
2022/10/08 08:50:23;;;;;;;12.40;7.10;;;;;;;12.73;82.57;99790.08;1673127;86;21514;-75
2022/10/08 08:52:51;;;;;;;13.45;8.18;;;;;;;12.80;82.15;99777.73;1672049;85;20984;-76
2022/10/08 08:55:24;;;;;;;17.42;8.33;;;;;;;12.85;82.36;99778.50;1614033;87;21012;-75
2022/10/08 08:58:09;;;;;;;14.07;7.60;;;;;;;12.98;82.17;99780.36;1634945;86;21026;-76
2022/10/08 09:00:41;;;;;;;15.05;9.28;;;;;;;13.07;82.36;99779.27;1671628;86;21054;-75
2022/10/08 09:03:23;;;;;;;15.90;8.03;;;;;;;13.20;82.23;99771.55;1680957;85;21039;-77
2022/10/08 09:05:56;;;;;;;15.08;7.40;;;;;;;13.29;82.16;99772.67;1669791;86;21609;-75
2022/10/08 09:08:34;;;;;;;15.28;8.28;;;;;;;13.44;81.95;99779.23;1673036;85;20998;-77
2022/10/08 09:11:04;;;;;;;19.62;8.28;;;;;;;13.53;81.86;99769.02;1668401;85;21012;-76
2022/10/08 09:13:40;;;;;;;15.32;9.23;;;;;;;13.66;81.78;99759.08;1681756;84;22073;-76
2022/10/08 09:16:15;;;;;;;18.15;8.28;;;;;;;13.77;81.52;99757.05;1671071;86;21369;-76
2022/10/08 09:18:48;;;;;;;13.68;8.28;;;;;;;13.91;81.42;99757.51;1666160;84;20962;-75
2022/10/08 09:21:18;;;;;;;15.72;8.75;;;;;;;14.02;81.40;99751.96;1670753;84;21045;-80
2022/10/08 09:23:46;;;;;;;12.78;8.45;;;;;;;14.15;81.09;99747.25;1666171;85;21064;-79
2022/10/08 09:26:28;;;;;;;13.75;8.43;;;;;;;14.31;80.35;99741.97;1667566;86;21002;-77
2022/10/08 09:28:58;;;;;;;17.62;9.38;;;;;;;14.39;79.97;99745.66;1667751;85;21029;-78
2022/10/08 09:31:46;;;;;;;13.65;8.33;;;;;;;14.50;79.76;99741.39;1672575;84;21088;-78
2022/10/08 09:34:19;;;;;;;16.67;8.33;;;;;;;14.62;79.72;99739.77;1665912;85;21026;-79
2022/10/08 09:37:02;;;;;;;17.67;8.65;;;;;;;14.76;79.47;99737.14;1671398;85;20985;-79
2022/10/08 09:39:34;;;;;;;12.68;7.92;;;;;;;14.87;78.92;99733.73;1669153;86;21046;-79
2022/10/08 09:42:10;;;;;;;15.10;7.78;;;;;;;15.01;78.56;99733.28;1674162;84;21801;-77
2022/10/08 09:44:55;;;;;;;13.40;7.47;;;;;;;15.14;77.76;99732.41;1666285;84;21075;-76
2022/10/08 09:47:25;;;;;;;12.33;6.95;;;;;;;15.23;76.53;99721.63;1662962;86;21523;-78
2022/10/08 09:50:17;;;;;;;15.70;7.20;;;;;;;15.39;77.23;99717.56;1663086;86;21022;-78
2022/10/08 09:52:51;;;;;;;12.45;6.72;;;;;;;15.50;77.77;99714.13;1660809;86;20973;-77
2022/10/08 09:55:27;;;;;;;10.03;6.30;;;;;;;15.64;77.10;99714.09;1667583;84;21509;-77
2022/10/08 09:58:02;;;;;;;10.60;4.80;;;;;;;15.75;75.10;99707.17;1662114;86;21079;-76
2022/10/08 10:00:36;;;;;;;11.25;4.80;;;;;;;15.90;76.35;99697.44;1663899;84;21053;-76
2022/10/08 10:03:06;;;;;;;10.20;5.08;;;;;;;16.00;75.95;99697.95;1654359;86;21560;-78
2022/10/08 10:05:36;;;;;;;12.37;5.87;;;;;;;16.10;76.19;99693.59;1646329;86;20994;-79
2022/10/08 10:08:04;;;;;;;8.60;5.15;;;;;;;16.24;73.54;99690.44;1643059;85;21057;-78
2022/10/08 10:10:39;;;;;;;9.48;4.80;;;;;;;16.30;73.32;99683.64;1636360;87;21499;-78
2022/10/08 10:13:24;;;;;;;8.53;4.80;;;;;;;16.42;74.24;99677.05;1637817;87;21055;-77
2022/10/08 10:15:57;;;;;;;8.80;4.70;;;;;;;16.58;74.02;99678.61;1641156;87;21017;-77
2022/10/08 10:18:33;;;;;;;9.35;5.37;;;;;;;16.77;74.05;99675.22;1646737;85;21037;-75
2022/10/08 10:21:05;;;;;;;11.97;5.08;;;;;;;16.94;73.53;99670.63;1645566;85;22065;-74
2022/10/08 10:23:57;;;;;;;12.68;5.42;;;;;;;17.04;72.83;99657.03;1661366;85;21468;-77
2022/10/08 10:26:29;;;;;;;9.23;4.70;;;;;;;17.18;70.69;99661.69;1657851;85;21540;-76
2022/10/08 10:29:01;;;;;;;9.60;5.12;;;;;;;17.35;71.58;99662.72;1646176;85;21019;-77
2022/10/08 10:31:46;;;;;;;7.67;4.83;;;;;;;17.42;70.57;99648.40;1645647;85;21034;-77
2022/10/08 10:34:19;;;;;;;7.25;3.95;;;;;;;17.58;69.25;99646.78;1638593;87;21077;-75
2022/10/08 10:36:49;;;;;;;;;;;;;;;17.76;70.07;99649.51;1650694;85;21034;-76
2022/10/08 10:39:29;;;;;;;8.08;3.65;;;;;;;17.87;67.31;99640.70;1645127;86;20146;-76
2022/10/08 10:42:20;;;;;;;5.72;3.50;;;;;;;17.99;69.61;99633.55;1643643;87;21065;-77
2022/10/08 10:45:05;;;;;;;8.98;4.00;;;;;;;18.16;66.68;99628.78;1636599;85;20982;-77
2022/10/08 10:47:33;;;;;;;7.62;4.35;;;;;;;18.23;68.56;99627.58;1644409;85;21074;-79
2022/10/08 10:50:01;;;;;;;8.68;4.70;;;;;;;18.43;68.12;99620.50;1642517;85;21026;-76
2022/10/08 10:53:00;;;;;;;7.85;4.42;;;;;;;18.60;67.77;99617.02;1648144;85;21058;-77
2022/10/08 10:56:08;;;;;;;6.90;4.40;;;;;;;18.70;66.81;99611.67;1642368;85;21088;-80
2022/10/08 10:58:50;;;;;;;8.10;4.10;;;;;;;18.83;66.92;99604.89;1639070;85;21083;-79
2022/10/08 11:01:53;;;;;;;7.85;4.10;;;;;;;19.06;65.77;99602.88;1641391;85;21096;-78
2022/10/08 11:04:41;;;;;;;6.93;4.70;;;;;;;19.18;65.03;99598.28;1645273;85;21530;-77
2022/10/08 11:07:34;;;;;;;6.95;4.55;;;;;;;19.31;63.98;99591.03;1653537;85;21265;-76
2022/10/08 11:10:27;;;;;;;7.35;5.42;;;;;;;19.44;65.04;99589.45;1666658;84;21003;-77
2022/10/08 11:13:19;;;;;;;8.95;4.33;;;;;;;19.64;63.94;99583.94;1657920;84;21020;-77
2022/10/08 11:15:55;;;;;;;9.17;4.70;;;;;;;19.79;62.42;99577.46;1659820;84;21034;-78
2022/10/08 11:18:31;;;;;;;9.65;4.45;;;;;;;19.89;62.43;99576.00;1667068;84;21018;-77
2022/10/08 11:21:12;;;;;;;10.88;4.30;;;;;;;19.98;61.78;99574.66;1666789;84;21098;-78
2022/10/08 11:24:07;;;;;;;7.28;4.20;;;;;;;20.09;63.12;99560.84;1670557;86;21042;-77
2022/10/08 11:26:40;;;;;;;8.08;4.30;;;;;;;20.27;61.17;99559.78;1665717;84;21009;-78
2022/10/08 11:29:38;;;;;;;8.85;4.58;;;;;;;20.55;62.42;99552.89;1657386;85;21053;-77
2022/10/08 11:32:13;;;;;;;7.80;4.20;;;;;;;20.83;62.38;99557.41;1667303;86;21610;-77
2022/10/08 11:34:49;;;;;;;9.28;4.97;;;;;;;21.10;61.23;99550.09;1666792;84;21001;-76
2022/10/08 11:37:25;;;;;;;9.55;4.45;;;;;;;21.31;59.57;99544.80;1666594;85;21019;-77
2022/10/08 11:40:16;;;;;;;5.97;3.92;;;;;;;21.41;56.82;99545.08;1663571;85;20996;-76
2022/10/08 11:43:13;;;;;;;7.03;4.50;;;;;;;21.63;58.84;99533.53;1658923;86;21011;-79
2022/10/08 11:45:44;;;;;;;10.23;4.83;;;;;;;22.02;58.78;99525.74;1657121;85;20983;-77
2022/10/08 11:48:34;;;;;;;7.75;4.30;;;;;;;22.33;54.66;99521.95;1667267;85;21037;-76
2022/10/08 11:51:25;;;;;;;8.23;4.15;;;;;;;22.58;52.37;99522.48;1657401;85;20977;-78
2022/10/08 11:54:30;;;;;;;6.87;3.50;;;;;;;22.77;52.35;99518.56;1659246;86;21026;-76
2022/10/08 11:57:33;;;;;;;8.20;3.60;;;;;;;23.02;55.91;99513.77;1662156;85;21041;-76
2022/10/08 12:00:11;;;;;;;6.45;3.52;;;;;;;23.21;54.66;99515.47;1666926;84;21027;-75
2022/10/08 12:02:42;;;;;;;5.78;3.65;;;;;;;23.43;51.13;99508.64;1660415;86;21077;-75
2022/10/08 12:05:36;;;;;;;4.87;2.95;;;;;;;23.48;53.28;99502.53;1666193;86;21015;-75